Map

Track Data

SID SEASON NUMBER BASIN SUBBASIN NAME ISO_TIME NATURE LAT LON WMO_WIND WMO_PRES WMO_AGENCY TRACK_TYPE DIST2LAND LANDFALL IFLAG USA_AGENCY USA_ATCF_ID USA_LAT USA_LON USA_RECORD USA_STATUS USA_WIND USA_PRES USA_SSHS USA_R34_NE USA_R34_SE USA_R34_SW USA_R34_NW USA_R50_NE USA_R50_SE USA_R50_SW USA_R50_NW USA_R64_NE USA_R64_SE USA_R64_SW USA_R64_NW USA_POCI USA_ROCI USA_RMW USA_EYE TOKYO_LAT TOKYO_LON TOKYO_GRADE TOKYO_WIND TOKYO_PRES TOKYO_R50_DIR TOKYO_R50_LONG TOKYO_R50_SHORT TOKYO_R30_DIR TOKYO_R30_LONG TOKYO_R30_SHORT TOKYO_LAND CMA_LAT CMA_LON CMA_CAT CMA_WIND CMA_PRES HKO_LAT HKO_LON HKO_CAT HKO_WIND HKO_PRES NEWDELHI_LAT NEWDELHI_LON NEWDELHI_GRADE NEWDELHI_WIND NEWDELHI_PRES NEWDELHI_CI NEWDELHI_DP NEWDELHI_POCI REUNION_LAT REUNION_LON REUNION_TYPE REUNION_WIND REUNION_PRES REUNION_TNUM REUNION_CI REUNION_RMW REUNION_R34_NE REUNION_R34_SE REUNION_R34_SW REUNION_R34_NW REUNION_R50_NE REUNION_R50_SE REUNION_R50_SW REUNION_R50_NW REUNION_R64_NE REUNION_R64_SE REUNION_R64_SW REUNION_R64_NW BOM_LAT BOM_LON BOM_TYPE BOM_WIND BOM_PRES BOM_TNUM BOM_CI BOM_RMW BOM_R34_NE BOM_R34_SE BOM_R34_SW BOM_R34_NW BOM_R50_NE BOM_R50_SE BOM_R50_SW BOM_R50_NW BOM_R64_NE BOM_R64_SE BOM_R64_SW BOM_R64_NW BOM_ROCI BOM_POCI BOM_EYE BOM_POS_METHOD BOM_PRES_METHOD NADI_LAT NADI_LON NADI_CAT NADI_WIND NADI_PRES WELLINGTON_LAT WELLINGTON_LON WELLINGTON_WIND WELLINGTON_PRES DS824_LAT DS824_LON DS824_STAGE DS824_WIND DS824_PRES TD9636_LAT TD9636_LON TD9636_STAGE TD9636_WIND TD9636_PRES TD9635_LAT TD9635_LON TD9635_WIND TD9635_PRES TD9635_ROCI NEUMANN_LAT NEUMANN_LON NEUMANN_CLASS NEUMANN_WIND NEUMANN_PRES MLC_LAT MLC_LON MLC_CLASS MLC_WIND MLC_PRES USA_GUST BOM_GUST BOM_GUST_PER REUNION_GUST REUNION_GUST_PER USA_SEAHGT USA_SEARAD_NE USA_SEARAD_SE USA_SEARAD_SW USA_SEARAD_NW STORM_SPEED STORM_DIR
1960297N40158 1960 83 WP MM MAMIE 1960-10-22 12:00:00 ET 40.0000 158.000 998 tokyo spur-other 912 912 _O____________ -1 40.0000 158.000 6 998 0 0 0 10 164
1960297N40158 1960 83 WP MM MAMIE 1960-10-22 15:00:00 ET 39.4985 158.185 spur-other 966 966 _P____________ -1 39.5123 158.077 6 1000 0 0 10 179
1960297N40158 1960 83 WP MM MAMIE 1960-10-22 18:00:00 ET 39.0000 158.000 1002 tokyo spur-other 999 999 _O____________ -1 39.0000 158.000 6 1002 0 0 0 11 200
1960297N40158 1960 83 WP MM MAMIE 1960-10-22 21:00:00 ET 38.4628 157.711 spur-other 1027 1027 _P____________ -1 38.4628 157.711 6 1004 0 0 11 201
1960297N40158 1960 83 WP MM MAMIE 1960-10-23 00:00:00 ET 38.0000 157.500 1006 tokyo spur-other 1061 1061 _O____________ -1 38.0000 157.500 6 1006 0 0 0 8 0
1960297N40158 1960 83 WP MM MAMIE 1960-10-23 03:00:00 ET 37.6526 157.676 spur-other 1099 1099 _P____________ -1 37.6526 157.676 6 1006 0 0 6 142
1960297N40158 1960 83 WP MM MAMIE 1960-10-23 06:00:00 ET 37.5000 158.000 1006 tokyo spur-other 1132 1132 _O____________ -1 37.5000 158.000 6 1006 0 0 0 5 99
1960297N40158 1960 83 WP MM MAMIE 1960-10-23 09:00:00 ET 37.5825 158.250 spur-other 1133 1131 _P____________ -1 37.5825 158.250 6 1006 0 0 5 53
1960297N40158 1960 83 WP MM MAMIE 1960-10-23 12:00:00 ET 37.8000 158.500 1006 tokyo spur-other 1131 1118 _O____________ -1 37.8000 158.500 6 1006 0 0 0 5 38
1960297N40158 1960 83 WP MM MAMIE 1960-10-23 15:00:00 ET 38.0066 158.675 spur-other 1124 1115 _P____________ -1 38.0066 158.675 6 1003 0 0 6 45
1960297N40158 1960 83 WP MM MAMIE 1960-10-23 18:00:00 ET 38.2000 159.000 1000 tokyo spur-other 1122 1122 _O____________ -1 38.2000 159.000 6 1000 0 0 0 8 68
1960297N40158 1960 83 WP MM MAMIE 1960-10-23 21:00:00 ET 38.3306 159.675 spur-other 1151 1151 _P____________ -1 38.3306 159.675 6 998 0 0 12 80
1960297N40158 1960 83 WP MM MAMIE 1960-10-24 00:00:00 ET 38.4000 160.500 996 tokyo spur-other 1187 1187 _O____________ -1 38.4000 160.500 6 996 0 0 0 12 88
1960297N40158 1960 83 WP MM MAMIE 1960-10-24 03:00:00 ET 38.3684 161.200 spur-other 1228 1228 _P____________ -1 38.3684 161.200 6 998 0 0 12 90
1960297N40158 1960 83 WP MM MAMIE 1960-10-24 06:00:00 ET 38.4000 162.000 1000 tokyo spur-other 1277 1277 _O____________ -1 38.4000 162.000 6 1000 0 0 0 14 79
1960297N40158 1960 83 WP MM MAMIE 1960-10-24 09:00:00 ET 38.6539 163.002 spur-other 1316 1316 _P____________ -1 38.6539 163.002 6 998 0 0 18 71
1960297N40158 1960 83 WP MM MAMIE 1960-10-24 12:00:00 ET 39.0000 164.200 996 tokyo spur-other 1372 1372 _O____________ -1 39.0000 164.200 6 996 0 0 0 21 74
1960297N40158 1960 83 WP MM MAMIE 1960-10-24 15:00:00 ET 39.2418 165.618 spur-other 1438 1433 _P____________ -1 39.2418 165.618 6 998 0 0 22 75
1960297N40158 1960 83 WP MM MAMIE 1960-10-24 18:00:00 ET 39.6000 167.000 1000 tokyo spur-other 1461 1448 _O____________ -1 39.6000 167.000 6 1000 0 0 0 21 61
1960297N40158 1960 83 WP MM MAMIE 1960-10-24 21:00:00 ET 40.2644 167.964 spur-other 1445 1431 _P____________ -1 40.2644 167.964 6 997 0 0 21 47
1960297N40158 1960 83 WP MM MAMIE 1960-10-25 00:00:00 ET 41.0000 169.000 994 tokyo spur-other 1436 1436 _O____________ -1 41.0000 169.000 6 994 0 0 0 25 56
1960297N40158 1960 83 WP MM MAMIE 1960-10-25 03:00:00 ET 41.6330 170.667 spur-other 1472 1469 _P____________ -1 41.6330 170.667 6 994 0 0 27 68
1960297N40158 1960 83 WP MM MAMIE 1960-10-25 06:00:00 ET 42.0000 172.300 994 tokyo spur-other 1520 1520 _O____________ -1 42.0000 172.300 6 994 0 0 0 19 80
1960297N40158 1960 83 WP MM MAMIE 1960-10-25 09:00:00 ET 41.9577 173.252 spur-other 1573 1573 _P____________ -1 41.9577 173.252 6 993 0 0 13 103
1960297N40158 1960 83 WP MM MAMIE 1960-10-25 12:00:00 ET 41.7000 174.000 992 tokyo spur-other 1633 1633 _O____________ -1 41.7000 174.000 6 992 0 0 0 13 114
1960297N40158 1960 83 WP MM MAMIE 1960-10-25 15:00:00 ET 41.4368 174.828 spur-other 1698 1698 _P____________ -1 41.4368 174.828 6 991 0 0 16 108
1960297N40158 1960 83 WP MM MAMIE 1960-10-25 18:00:00 ET 41.2000 176.000 990 tokyo spur-other 1721 1650 _O____________ -1 41.2000 176.000 6 990 0 0 0 24 100
1960297N40158 1960 83 WP MM MAMIE 1960-10-25 21:00:00 ET 41.0271 178.003 spur-other 1645 1565 _P____________ -1 41.0271 178.003 6 992 0 0 30 94
1960297N40158 1960 83 EP CP MAMIE 1960-10-26 00:00:00 ET 41.0000 180.000 994 tokyo spur-other 1561 1495 _O____________ -1 41.0000 180.000 6 994 0 0 0 24 85
1960297N40158 1960 83 EP CP MAMIE 1960-10-26 03:00:00 ET 41.2211 181.246 spur-other 1495 1426 _P____________ -1 41.2211 -178.754 6 994 0 0 16 68
1960297N40158 1960 83 EP CP MAMIE 1960-10-26 06:00:00 ET 41.6000 182.000 spur-other 1426 _O____________ -1 41.6000 182.000 6 994 0 0 0 14 56

Digital Typhoon Data and Search

About IBTrACS Database

This database is a web-friendly format of International Best Track Archive for Climate Stewardship (IBTrACS), a global best track data archive curated by NOAA dating back to 1842.

Updated: 2021-10-08